Aviation Digital Data Service (ADDS)

Output produced by TAFs form (1451 UTC 31 October 2014)
found at http://www.aviationweather.gov/adds/tafs/
 
KDEN 311353Z 25005KT 10SM FEW120 BKN220 02/M03 A3032 RMK AO2 SLP262 T00171028
KDEN 311137Z 3112/0118 15010KT P6SM SKC 
     FM311300 34008KT P6SM VCFG SCT005 
     FM311600 17014KT P6SM SCT220 
     FM010200 20010KT P6SM FEW140 SCT220 
     FM010900 22012KT P6SM SCT090 BKN180